sensor_id;sensor_type;location;lat;lon;timestamp;P1;durP1;ratioP1;P2;durP2;ratioP2
17265;SDS011;8749;47.076;15.412;2022-08-14T00:00:23;6.53;;;5.90;;
17265;SDS011;8749;47.076;15.412;2022-08-14T00:02:50;6.30;;;5.70;;
17265;SDS011;8749;47.076;15.412;2022-08-14T00:05:18;6.78;;;6.18;;
17265;SDS011;8749;47.076;15.412;2022-08-14T00:07:46;5.97;;;5.47;;
17265;SDS011;8749;47.076;15.412;2022-08-14T00:10:15;6.25;;;5.70;;
17265;SDS011;8749;47.076;15.412;2022-08-14T00:12:45;6.15;;;5.65;;
17265;SDS011;8749;47.076;15.412;2022-08-14T00:15:16;6.28;;;5.70;;
17265;SDS011;8749;47.076;15.412;2022-08-14T00:17:46;6.05;;;5.50;;
17265;SDS011;8749;47.076;15.412;2022-08-14T00:20:14;6.47;;;5.82;;
17265;SDS011;8749;47.076;15.412;2022-08-14T00:22:41;6.50;;;5.80;;
17265;SDS011;8749;47.076;15.412;2022-08-14T00:25:08;6.03;;;5.43;;
17265;SDS011;8749;47.076;15.412;2022-08-14T00:27:36;5.88;;;5.47;;
17265;SDS011;8749;47.076;15.412;2022-08-14T00:30:04;6.80;;;5.47;;
17265;SDS011;8749;47.076;15.412;2022-08-14T00:32:34;6.13;;;5.60;;
17265;SDS011;8749;47.076;15.412;2022-08-14T00:35:02;5.70;;;5.30;;
17265;SDS011;8749;47.076;15.412;2022-08-14T00:37:30;6.03;;;5.45;;
17265;SDS011;8749;47.076;15.412;2022-08-14T00:39:57;6.72;;;5.53;;
17265;SDS011;8749;47.076;15.412;2022-08-14T00:42:24;6.22;;;5.80;;
17265;SDS011;8749;47.076;15.412;2022-08-14T00:44:52;6.05;;;5.55;;
17265;SDS011;8749;47.076;15.412;2022-08-14T00:47:20;6.03;;;5.53;;
17265;SDS011;8749;47.076;15.412;2022-08-14T00:49:50;6.80;;;5.85;;
17265;SDS011;8749;47.076;15.412;2022-08-14T00:52:20;6.85;;;5.85;;
17265;SDS011;8749;47.076;15.412;2022-08-14T00:54:48;7.05;;;5.97;;
17265;SDS011;8749;47.076;15.412;2022-08-14T00:57:19;6.90;;;6.20;;
17265;SDS011;8749;47.076;15.412;2022-08-14T00:59:46;6.38;;;5.78;;
17265;SDS011;8749;47.076;15.412;2022-08-14T01:02:13;6.00;;;5.45;;
17265;SDS011;8749;47.076;15.412;2022-08-14T01:04:44;7.07;;;5.68;;
17265;SDS011;8749;47.076;15.412;2022-08-14T01:07:13;6.30;;;5.80;;
17265;SDS011;8749;47.076;15.412;2022-08-14T01:09:45;6.50;;;5.75;;
17265;SDS011;8749;47.076;15.412;2022-08-14T01:12:15;7.35;;;5.90;;
17265;SDS011;8749;47.076;15.412;2022-08-14T01:14:43;7.00;;;6.07;;
17265;SDS011;8749;47.076;15.412;2022-08-14T01:17:10;7.15;;;5.95;;
17265;SDS011;8749;47.076;15.412;2022-08-14T01:19:37;7.50;;;5.90;;
17265;SDS011;8749;47.076;15.412;2022-08-14T01:22:23;6.38;;;5.70;;
17265;SDS011;8749;47.076;15.412;2022-08-14T01:24:51;7.50;;;6.28;;
17265;SDS011;8749;47.076;15.412;2022-08-14T01:27:18;6.63;;;5.57;;
17265;SDS011;8749;47.076;15.412;2022-08-14T01:29:48;8.88;;;6.18;;
17265;SDS011;8749;47.076;15.412;2022-08-14T01:32:19;6.68;;;5.97;;
17265;SDS011;8749;47.076;15.412;2022-08-14T01:34:47;7.35;;;5.82;;
17265;SDS011;8749;47.076;15.412;2022-08-14T01:37:15;8.75;;;5.82;;
17265;SDS011;8749;47.076;15.412;2022-08-14T01:39:43;6.40;;;5.78;;
17265;SDS011;8749;47.076;15.412;2022-08-14T01:42:10;6.57;;;5.97;;
17265;SDS011;8749;47.076;15.412;2022-08-14T01:44:37;7.68;;;6.28;;
17265;SDS011;8749;47.076;15.412;2022-08-14T01:47:05;7.72;;;6.05;;
17265;SDS011;8749;47.076;15.412;2022-08-14T01:49:38;8.05;;;6.22;;
17265;SDS011;8749;47.076;15.412;2022-08-14T01:52:05;8.38;;;5.90;;
17265;SDS011;8749;47.076;15.412;2022-08-14T01:54:33;6.45;;;5.82;;
17265;SDS011;8749;47.076;15.412;2022-08-14T01:57:02;6.75;;;6.03;;
17265;SDS011;8749;47.076;15.412;2022-08-14T01:59:35;7.60;;;5.93;;
17265;SDS011;8749;47.076;15.412;2022-08-14T02:02:05;7.68;;;6.35;;
17265;SDS011;8749;47.076;15.412;2022-08-14T02:04:37;6.97;;;5.82;;
17265;SDS011;8749;47.076;15.412;2022-08-14T02:07:05;6.20;;;5.60;;
17265;SDS011;8749;47.076;15.412;2022-08-14T02:09:33;7.05;;;5.85;;
17265;SDS011;8749;47.076;15.412;2022-08-14T02:12:05;6.93;;;6.00;;
17265;SDS011;8749;47.076;15.412;2022-08-14T02:14:33;8.07;;;6.50;;
17265;SDS011;8749;47.076;15.412;2022-08-14T02:17:00;6.85;;;6.25;;
17265;SDS011;8749;47.076;15.412;2022-08-14T02:19:28;9.20;;;6.32;;
17265;SDS011;8749;47.076;15.412;2022-08-14T02:21:56;7.65;;;6.22;;
17265;SDS011;8749;47.076;15.412;2022-08-14T02:24:25;6.70;;;6.10;;
17265;SDS011;8749;47.076;15.412;2022-08-14T02:26:54;6.55;;;5.95;;
17265;SDS011;8749;47.076;15.412;2022-08-14T02:29:25;6.57;;;6.00;;
17265;SDS011;8749;47.076;15.412;2022-08-14T02:31:54;6.65;;;6.05;;
17265;SDS011;8749;47.076;15.412;2022-08-14T02:34:23;6.55;;;5.95;;
17265;SDS011;8749;47.076;15.412;2022-08-14T02:36:54;6.43;;;5.90;;
17265;SDS011;8749;47.076;15.412;2022-08-14T02:39:24;6.70;;;6.10;;
17265;SDS011;8749;47.076;15.412;2022-08-14T02:41:51;6.38;;;5.85;;
17265;SDS011;8749;47.076;15.412;2022-08-14T02:44:18;7.03;;;6.28;;
17265;SDS011;8749;47.076;15.412;2022-08-14T02:46:49;6.53;;;5.93;;
17265;SDS011;8749;47.076;15.412;2022-08-14T02:49:17;6.25;;;5.70;;
17265;SDS011;8749;47.076;15.412;2022-08-14T02:51:51;6.45;;;5.68;;
17265;SDS011;8749;47.076;15.412;2022-08-14T02:54:18;7.13;;;5.78;;
17265;SDS011;8749;47.076;15.412;2022-08-14T02:56:47;6.15;;;5.55;;
17265;SDS011;8749;47.076;15.412;2022-08-14T02:59:14;6.63;;;5.93;;
17265;SDS011;8749;47.076;15.412;2022-08-14T03:01:42;6.57;;;5.97;;
17265;SDS011;8749;47.076;15.412;2022-08-14T03:04:11;6.15;;;5.65;;
17265;SDS011;8749;47.076;15.412;2022-08-14T03:06:38;7.00;;;6.28;;
17265;SDS011;8749;47.076;15.412;2022-08-14T03:09:07;8.10;;;5.80;;
17265;SDS011;8749;47.076;15.412;2022-08-14T03:11:35;6.63;;;5.80;;
17265;SDS011;8749;47.076;15.412;2022-08-14T03:14:02;6.60;;;6.00;;
17265;SDS011;8749;47.076;15.412;2022-08-14T03:16:29;6.60;;;5.90;;
17265;SDS011;8749;47.076;15.412;2022-08-14T03:18:59;7.07;;;6.40;;
17265;SDS011;8749;47.076;15.412;2022-08-14T03:21:29;7.38;;;6.10;;
17265;SDS011;8749;47.076;15.412;2022-08-14T03:23:56;6.47;;;5.88;;
17265;SDS011;8749;47.076;15.412;2022-08-14T03:26:32;6.65;;;6.05;;
17265;SDS011;8749;47.076;15.412;2022-08-14T03:28:59;6.75;;;6.10;;
17265;SDS011;8749;47.076;15.412;2022-08-14T03:31:27;6.15;;;5.65;;
17265;SDS011;8749;47.076;15.412;2022-08-14T03:33:54;6.60;;;5.88;;
17265;SDS011;8749;47.076;15.412;2022-08-14T03:36:22;8.88;;;6.35;;
17265;SDS011;8749;47.076;15.412;2022-08-14T03:38:51;7.32;;;6.28;;
17265;SDS011;8749;47.076;15.412;2022-08-14T03:41:21;6.40;;;5.82;;
17265;SDS011;8749;47.076;15.412;2022-08-14T03:43:50;6.50;;;6.00;;
17265;SDS011;8749;47.076;15.412;2022-08-14T03:46:19;6.82;;;6.18;;
17265;SDS011;8749;47.076;15.412;2022-08-14T03:48:47;6.78;;;6.10;;
17265;SDS011;8749;47.076;15.412;2022-08-14T03:51:14;6.05;;;5.63;;
17265;SDS011;8749;47.076;15.412;2022-08-14T03:53:42;7.82;;;6.45;;
17265;SDS011;8749;47.076;15.412;2022-08-14T03:56:12;7.43;;;6.47;;
17265;SDS011;8749;47.076;15.412;2022-08-14T03:58:41;7.38;;;6.65;;
17265;SDS011;8749;47.076;15.412;2022-08-14T04:01:10;7.30;;;6.60;;
17265;SDS011;8749;47.076;15.412;2022-08-14T04:03:37;13.20;;;10.68;;
17265;SDS011;8749;47.076;15.412;2022-08-14T04:06:04;10.27;;;7.65;;
17265;SDS011;8749;47.076;15.412;2022-08-14T04:08:33;9.80;;;6.93;;
17265;SDS011;8749;47.076;15.412;2022-08-14T04:11:01;7.40;;;6.70;;
17265;SDS011;8749;47.076;15.412;2022-08-14T04:13:30;7.43;;;6.70;;
17265;SDS011;8749;47.076;15.412;2022-08-14T04:15:59;7.57;;;6.72;;
17265;SDS011;8749;47.076;15.412;2022-08-14T04:18:26;7.43;;;6.72;;
17265;SDS011;8749;47.076;15.412;2022-08-14T04:20:55;16.15;;;13.60;;
17265;SDS011;8749;47.076;15.412;2022-08-14T04:23:23;10.30;;;9.25;;
17265;SDS011;8749;47.076;15.412;2022-08-14T04:25:50;9.70;;;8.65;;
17265;SDS011;8749;47.076;15.412;2022-08-14T04:28:18;10.05;;;7.80;;
17265;SDS011;8749;47.076;15.412;2022-08-14T04:30:46;8.88;;;7.80;;
17265;SDS011;8749;47.076;15.412;2022-08-14T04:33:13;8.75;;;7.13;;
17265;SDS011;8749;47.076;15.412;2022-08-14T04:35:40;8.15;;;7.40;;
17265;SDS011;8749;47.076;15.412;2022-08-14T04:38:08;14.57;;;10.68;;
17265;SDS011;8749;47.076;15.412;2022-08-14T04:40:53;10.48;;;8.50;;
17265;SDS011;8749;47.076;15.412;2022-08-14T04:43:37;14.90;;;13.30;;
17265;SDS011;8749;47.076;15.412;2022-08-14T04:46:07;15.38;;;12.40;;
17265;SDS011;8749;47.076;15.412;2022-08-14T04:48:35;13.68;;;11.75;;
17265;SDS011;8749;47.076;15.412;2022-08-14T04:51:03;11.88;;;9.63;;
17265;SDS011;8749;47.076;15.412;2022-08-14T04:53:32;8.95;;;8.05;;
17265;SDS011;8749;47.076;15.412;2022-08-14T04:56:00;8.32;;;7.50;;
17265;SDS011;8749;47.076;15.412;2022-08-14T04:58:29;8.57;;;7.65;;
17265;SDS011;8749;47.076;15.412;2022-08-14T05:00:57;19.30;;;12.88;;
17265;SDS011;8749;47.076;15.412;2022-08-14T05:03:27;11.15;;;8.23;;
17265;SDS011;8749;47.076;15.412;2022-08-14T05:05:56;9.77;;;7.40;;
17265;SDS011;8749;47.076;15.412;2022-08-14T05:08:24;8.13;;;7.03;;
17265;SDS011;8749;47.076;15.412;2022-08-14T05:10:52;13.90;;;10.52;;
17265;SDS011;8749;47.076;15.412;2022-08-14T05:13:22;8.95;;;7.55;;
17265;SDS011;8749;47.076;15.412;2022-08-14T05:15:51;10.93;;;8.85;;
17265;SDS011;8749;47.076;15.412;2022-08-14T05:18:20;8.27;;;7.47;;
17265;SDS011;8749;47.076;15.412;2022-08-14T05:20:50;7.72;;;7.03;;
17265;SDS011;8749;47.076;15.412;2022-08-14T05:23:18;8.77;;;7.88;;
17265;SDS011;8749;47.076;15.412;2022-08-14T05:25:48;9.63;;;7.70;;
17265;SDS011;8749;47.076;15.412;2022-08-14T05:28:19;12.57;;;9.48;;
17265;SDS011;8749;47.076;15.412;2022-08-14T05:30:49;12.05;;;9.80;;
17265;SDS011;8749;47.076;15.412;2022-08-14T05:33:19;8.45;;;7.65;;
17265;SDS011;8749;47.076;15.412;2022-08-14T05:35:50;8.02;;;7.32;;
17265;SDS011;8749;47.076;15.412;2022-08-14T05:38:18;8.18;;;7.38;;
17265;SDS011;8749;47.076;15.412;2022-08-14T05:40:47;8.40;;;7.38;;
17265;SDS011;8749;47.076;15.412;2022-08-14T05:43:14;8.38;;;7.22;;
17265;SDS011;8749;47.076;15.412;2022-08-14T05:45:42;8.27;;;7.47;;
17265;SDS011;8749;47.076;15.412;2022-08-14T05:48:11;9.32;;;8.43;;
17265;SDS011;8749;47.076;15.412;2022-08-14T05:50:39;10.73;;;8.32;;
17265;SDS011;8749;47.076;15.412;2022-08-14T05:53:08;8.73;;;7.93;;
17265;SDS011;8749;47.076;15.412;2022-08-14T05:55:35;9.60;;;8.70;;
17265;SDS011;8749;47.076;15.412;2022-08-14T05:58:04;9.27;;;8.38;;
17265;SDS011;8749;47.076;15.412;2022-08-14T06:00:33;7.75;;;7.05;;
17265;SDS011;8749;47.076;15.412;2022-08-14T06:03:01;8.75;;;7.43;;
17265;SDS011;8749;47.076;15.412;2022-08-14T06:05:29;8.13;;;7.35;;
17265;SDS011;8749;47.076;15.412;2022-08-14T06:07:56;8.50;;;7.70;;
17265;SDS011;8749;47.076;15.412;2022-08-14T06:10:25;8.52;;;7.70;;
17265;SDS011;8749;47.076;15.412;2022-08-14T06:12:53;8.43;;;7.68;;
17265;SDS011;8749;47.076;15.412;2022-08-14T06:15:20;8.18;;;7.38;;
17265;SDS011;8749;47.076;15.412;2022-08-14T06:17:48;8.48;;;7.68;;
17265;SDS011;8749;47.076;15.412;2022-08-14T06:20:16;8.32;;;7.63;;
17265;SDS011;8749;47.076;15.412;2022-08-14T06:22:44;9.80;;;7.80;;
17265;SDS011;8749;47.076;15.412;2022-08-14T06:25:12;10.30;;;7.28;;
17265;SDS011;8749;47.076;15.412;2022-08-14T06:27:42;7.57;;;6.97;;
17265;SDS011;8749;47.076;15.412;2022-08-14T06:30:11;7.88;;;7.07;;
17265;SDS011;8749;47.076;15.412;2022-08-14T06:32:39;8.35;;;7.10;;
17265;SDS011;8749;47.076;15.412;2022-08-14T06:35:07;7.93;;;7.22;;
17265;SDS011;8749;47.076;15.412;2022-08-14T06:37:38;11.63;;;9.93;;
17265;SDS011;8749;47.076;15.412;2022-08-14T06:40:07;9.75;;;7.25;;
17265;SDS011;8749;47.076;15.412;2022-08-14T06:42:36;8.65;;;7.60;;
17265;SDS011;8749;47.076;15.412;2022-08-14T06:45:05;7.15;;;6.50;;
17265;SDS011;8749;47.076;15.412;2022-08-14T06:47:33;8.18;;;7.45;;
17265;SDS011;8749;47.076;15.412;2022-08-14T06:50:00;7.53;;;6.82;;
17265;SDS011;8749;47.076;15.412;2022-08-14T06:52:27;7.53;;;6.75;;
17265;SDS011;8749;47.076;15.412;2022-08-14T06:54:54;7.30;;;6.60;;
17265;SDS011;8749;47.076;15.412;2022-08-14T06:57:22;8.48;;;6.70;;
17265;SDS011;8749;47.076;15.412;2022-08-14T06:59:49;7.35;;;6.40;;
17265;SDS011;8749;47.076;15.412;2022-08-14T07:02:17;9.73;;;7.20;;
17265;SDS011;8749;47.076;15.412;2022-08-14T07:05:02;9.57;;;7.40;;
17265;SDS011;8749;47.076;15.412;2022-08-14T07:07:47;7.65;;;6.82;;
17265;SDS011;8749;47.076;15.412;2022-08-14T07:10:14;7.25;;;6.55;;
17265;SDS011;8749;47.076;15.412;2022-08-14T07:12:41;8.10;;;7.20;;
17265;SDS011;8749;47.076;15.412;2022-08-14T07:15:08;7.22;;;6.47;;
17265;SDS011;8749;47.076;15.412;2022-08-14T07:17:43;7.55;;;6.85;;
17265;SDS011;8749;47.076;15.412;2022-08-14T07:20:11;7.50;;;6.72;;
17265;SDS011;8749;47.076;15.412;2022-08-14T07:22:38;7.18;;;6.47;;
17265;SDS011;8749;47.076;15.412;2022-08-14T07:25:05;7.97;;;6.90;;
17265;SDS011;8749;47.076;15.412;2022-08-14T07:27:32;7.15;;;6.50;;
17265;SDS011;8749;47.076;15.412;2022-08-14T07:30:00;7.25;;;6.55;;
17265;SDS011;8749;47.076;15.412;2022-08-14T07:32:29;7.32;;;6.63;;
17265;SDS011;8749;47.076;15.412;2022-08-14T07:34:57;7.25;;;6.55;;
17265;SDS011;8749;47.076;15.412;2022-08-14T07:37:24;7.32;;;6.72;;
17265;SDS011;8749;47.076;15.412;2022-08-14T07:39:51;7.50;;;6.80;;
17265;SDS011;8749;47.076;15.412;2022-08-14T07:42:18;11.00;;;6.75;;
17265;SDS011;8749;47.076;15.412;2022-08-14T07:44:45;6.85;;;6.25;;
17265;SDS011;8749;47.076;15.412;2022-08-14T07:47:12;7.00;;;6.40;;
17265;SDS011;8749;47.076;15.412;2022-08-14T07:49:40;7.25;;;6.55;;
17265;SDS011;8749;47.076;15.412;2022-08-14T07:52:08;8.63;;;6.45;;
17265;SDS011;8749;47.076;15.412;2022-08-14T07:54:36;6.97;;;6.47;;
17265;SDS011;8749;47.076;15.412;2022-08-14T07:57:03;6.50;;;6.00;;
17265;SDS011;8749;47.076;15.412;2022-08-14T07:59:30;7.03;;;6.00;;
17265;SDS011;8749;47.076;15.412;2022-08-14T08:01:57;7.00;;;6.40;;
17265;SDS011;8749;47.076;15.412;2022-08-14T08:04:25;6.80;;;6.20;;
17265;SDS011;8749;47.076;15.412;2022-08-14T08:06:55;7.63;;;6.15;;
17265;SDS011;8749;47.076;15.412;2022-08-14T08:09:24;6.70;;;6.20;;
17265;SDS011;8749;47.076;15.412;2022-08-14T08:11:54;7.30;;;6.55;;
17265;SDS011;8749;47.076;15.412;2022-08-14T08:14:32;6.53;;;6.03;;
17265;SDS011;8749;47.076;15.412;2022-08-14T08:17:15;9.65;;;6.65;;
17265;SDS011;8749;47.076;15.412;2022-08-14T08:19:46;6.38;;;5.93;;
17265;SDS011;8749;47.076;15.412;2022-08-14T08:22:13;6.93;;;6.32;;
17265;SDS011;8749;47.076;15.412;2022-08-14T08:24:41;6.75;;;6.13;;
17265;SDS011;8749;47.076;15.412;2022-08-14T08:27:17;6.47;;;5.80;;
17265;SDS011;8749;47.076;15.412;2022-08-14T08:29:45;6.57;;;5.97;;
17265;SDS011;8749;47.076;15.412;2022-08-14T08:32:11;6.35;;;5.75;;
17265;SDS011;8749;47.076;15.412;2022-08-14T08:34:41;7.35;;;5.43;;
17265;SDS011;8749;47.076;15.412;2022-08-14T08:37:10;6.65;;;6.05;;
17265;SDS011;8749;47.076;15.412;2022-08-14T08:39:42;5.75;;;5.35;;
17265;SDS011;8749;47.076;15.412;2022-08-14T08:42:10;6.53;;;6.00;;
17265;SDS011;8749;47.076;15.412;2022-08-14T08:44:37;7.78;;;6.18;;
17265;SDS011;8749;47.076;15.412;2022-08-14T08:47:04;6.22;;;5.72;;
17265;SDS011;8749;47.076;15.412;2022-08-14T08:49:38;5.68;;;5.28;;
17265;SDS011;8749;47.076;15.412;2022-08-14T08:52:07;5.50;;;5.03;;
17265;SDS011;8749;47.076;15.412;2022-08-14T08:54:34;6.10;;;5.60;;
17265;SDS011;8749;47.076;15.412;2022-08-14T08:57:09;6.30;;;5.80;;
17265;SDS011;8749;47.076;15.412;2022-08-14T08:59:37;5.35;;;5.05;;
17265;SDS011;8749;47.076;15.412;2022-08-14T09:02:04;5.72;;;5.22;;
17265;SDS011;8749;47.076;15.412;2022-08-14T09:04:34;5.78;;;5.38;;
17265;SDS011;8749;47.076;15.412;2022-08-14T09:07:02;5.97;;;5.40;;
17265;SDS011;8749;47.076;15.412;2022-08-14T09:09:31;5.53;;;5.13;;
17265;SDS011;8749;47.076;15.412;2022-08-14T09:11:58;5.45;;;5.00;;
17265;SDS011;8749;47.076;15.412;2022-08-14T09:14:29;5.28;;;4.82;;
17265;SDS011;8749;47.076;15.412;2022-08-14T09:16:59;5.75;;;5.18;;
17265;SDS011;8749;47.076;15.412;2022-08-14T09:19:26;5.10;;;4.80;;
17265;SDS011;8749;47.076;15.412;2022-08-14T09:21:53;5.00;;;4.70;;
17265;SDS011;8749;47.076;15.412;2022-08-14T09:24:27;5.43;;;5.13;;
17265;SDS011;8749;47.076;15.412;2022-08-14T09:27:06;5.07;;;4.75;;
17265;SDS011;8749;47.076;15.412;2022-08-14T09:29:38;5.00;;;4.70;;
17265;SDS011;8749;47.076;15.412;2022-08-14T09:32:06;5.20;;;4.78;;
17265;SDS011;8749;47.076;15.412;2022-08-14T09:34:43;5.15;;;4.88;;
17265;SDS011;8749;47.076;15.412;2022-08-14T09:37:19;5.10;;;4.80;;
17265;SDS011;8749;47.076;15.412;2022-08-14T09:39:58;5.13;;;4.82;;
17265;SDS011;8749;47.076;15.412;2022-08-14T09:42:37;5.25;;;4.85;;
17265;SDS011;8749;47.076;15.412;2022-08-14T09:45:23;5.43;;;5.03;;
17265;SDS011;8749;47.076;15.412;2022-08-14T09:47:56;5.10;;;4.70;;
17265;SDS011;8749;47.076;15.412;2022-08-14T09:50:24;6.05;;;5.05;;
17265;SDS011;8749;47.076;15.412;2022-08-14T09:52:54;6.10;;;5.18;;
17265;SDS011;8749;47.076;15.412;2022-08-14T09:55:23;5.40;;;5.00;;
17265;SDS011;8749;47.076;15.412;2022-08-14T09:57:52;5.22;;;4.93;;
17265;SDS011;8749;47.076;15.412;2022-08-14T10:00:40;5.25;;;4.95;;
17265;SDS011;8749;47.076;15.412;2022-08-14T10:03:10;5.22;;;4.80;;
17265;SDS011;8749;47.076;15.412;2022-08-14T10:05:37;5.80;;;5.30;;
17265;SDS011;8749;47.076;15.412;2022-08-14T10:08:14;5.30;;;4.90;;
17265;SDS011;8749;47.076;15.412;2022-08-14T10:10:42;5.75;;;5.30;;
17265;SDS011;8749;47.076;15.412;2022-08-14T10:13:19;6.53;;;5.65;;
17265;SDS011;8749;47.076;15.412;2022-08-14T10:15:48;7.18;;;6.47;;
17265;SDS011;8749;47.076;15.412;2022-08-14T10:18:16;5.65;;;5.15;;
17265;SDS011;8749;47.076;15.412;2022-08-14T10:20:51;5.43;;;5.13;;
17265;SDS011;8749;47.076;15.412;2022-08-14T10:23:22;5.30;;;4.90;;
17265;SDS011;8749;47.076;15.412;2022-08-14T10:25:51;5.72;;;5.28;;
17265;SDS011;8749;47.076;15.412;2022-08-14T10:28:23;5.43;;;4.75;;
17265;SDS011;8749;47.076;15.412;2022-08-14T10:30:52;5.70;;;5.20;;
17265;SDS011;8749;47.076;15.412;2022-08-14T10:33:23;6.05;;;5.55;;
17265;SDS011;8749;47.076;15.412;2022-08-14T10:35:55;5.50;;;5.10;;
17265;SDS011;8749;47.076;15.412;2022-08-14T10:38:27;5.10;;;4.70;;
17265;SDS011;8749;47.076;15.412;2022-08-14T10:40:56;5.10;;;4.80;;
17265;SDS011;8749;47.076;15.412;2022-08-14T10:43:36;6.68;;;6.07;;
17265;SDS011;8749;47.076;15.412;2022-08-14T10:46:11;6.18;;;5.68;;
17265;SDS011;8749;47.076;15.412;2022-08-14T10:48:39;5.53;;;5.22;;
17265;SDS011;8749;47.076;15.412;2022-08-14T10:51:06;5.40;;;5.00;;
17265;SDS011;8749;47.076;15.412;2022-08-14T10:53:34;6.68;;;5.10;;
17265;SDS011;8749;47.076;15.412;2022-08-14T10:56:03;5.53;;;4.90;;
17265;SDS011;8749;47.076;15.412;2022-08-14T10:58:34;5.22;;;4.90;;
17265;SDS011;8749;47.076;15.412;2022-08-14T11:01:02;5.43;;;5.03;;
17265;SDS011;8749;47.076;15.412;2022-08-14T11:03:40;5.80;;;5.22;;
17265;SDS011;8749;47.076;15.412;2022-08-14T11:06:11;5.40;;;5.00;;
17265;SDS011;8749;47.076;15.412;2022-08-14T11:08:43;5.25;;;4.85;;
17265;SDS011;8749;47.076;15.412;2022-08-14T11:11:11;7.07;;;4.90;;
17265;SDS011;8749;47.076;15.412;2022-08-14T11:13:40;5.70;;;5.30;;
17265;SDS011;8749;47.076;15.412;2022-08-14T11:16:10;5.57;;;5.10;;
17265;SDS011;8749;47.076;15.412;2022-08-14T11:18:40;5.00;;;4.70;;
17265;SDS011;8749;47.076;15.412;2022-08-14T11:21:13;5.30;;;4.90;;
17265;SDS011;8749;47.076;15.412;2022-08-14T11:23:41;5.00;;;4.70;;
17265;SDS011;8749;47.076;15.412;2022-08-14T11:26:11;5.22;;;4.93;;
17265;SDS011;8749;47.076;15.412;2022-08-14T11:28:43;4.47;;;4.28;;
17265;SDS011;8749;47.076;15.412;2022-08-14T11:31:11;5.10;;;4.70;;
17265;SDS011;8749;47.076;15.412;2022-08-14T11:33:40;5.00;;;4.70;;
17265;SDS011;8749;47.076;15.412;2022-08-14T11:36:09;5.63;;;5.15;;
17265;SDS011;8749;47.076;15.412;2022-08-14T11:38:38;5.18;;;4.80;;
17265;SDS011;8749;47.076;15.412;2022-08-14T11:41:06;7.57;;;6.88;;
17265;SDS011;8749;47.076;15.412;2022-08-14T11:43:37;7.43;;;6.80;;
17265;SDS011;8749;47.076;15.412;2022-08-14T11:46:05;6.20;;;5.70;;
17265;SDS011;8749;47.076;15.412;2022-08-14T11:48:32;4.82;;;4.53;;
17265;SDS011;8749;47.076;15.412;2022-08-14T11:51:12;5.20;;;4.80;;
17265;SDS011;8749;47.076;15.412;2022-08-14T11:53:50;4.72;;;4.43;;
17265;SDS011;8749;47.076;15.412;2022-08-14T11:56:19;6.10;;;5.53;;
17265;SDS011;8749;47.076;15.412;2022-08-14T11:58:49;5.75;;;5.20;;
17265;SDS011;8749;47.076;15.412;2022-08-14T12:01:22;5.97;;;5.47;;
17265;SDS011;8749;47.076;15.412;2022-08-14T12:03:54;5.07;;;4.78;;
17265;SDS011;8749;47.076;15.412;2022-08-14T12:06:42;7.68;;;6.97;;
17265;SDS011;8749;47.076;15.412;2022-08-14T12:09:10;5.05;;;4.68;;
17265;SDS011;8749;47.076;15.412;2022-08-14T12:11:38;5.10;;;4.70;;
17265;SDS011;8749;47.076;15.412;2022-08-14T12:14:06;5.07;;;4.68;;
17265;SDS011;8749;47.076;15.412;2022-08-14T12:16:33;7.50;;;6.75;;
17265;SDS011;8749;47.076;15.412;2022-08-14T12:19:02;6.05;;;5.60;;
17265;SDS011;8749;47.076;15.412;2022-08-14T12:21:30;6.45;;;5.85;;
17265;SDS011;8749;47.076;15.412;2022-08-14T12:24:01;5.45;;;5.05;;
17265;SDS011;8749;47.076;15.412;2022-08-14T12:26:30;5.90;;;5.40;;
17265;SDS011;8749;47.076;15.412;2022-08-14T12:29:04;6.63;;;5.43;;
17265;SDS011;8749;47.076;15.412;2022-08-14T12:31:32;5.00;;;4.60;;
17265;SDS011;8749;47.076;15.412;2022-08-14T12:34:01;4.97;;;4.60;;
17265;SDS011;8749;47.076;15.412;2022-08-14T12:36:32;5.22;;;4.60;;
17265;SDS011;8749;47.076;15.412;2022-08-14T12:38:59;4.85;;;4.50;;
17265;SDS011;8749;47.076;15.412;2022-08-14T12:41:29;4.63;;;4.32;;
17265;SDS011;8749;47.076;15.412;2022-08-14T12:44:00;4.22;;;4.00;;
17265;SDS011;8749;47.076;15.412;2022-08-14T12:46:28;4.03;;;3.83;;
17265;SDS011;8749;47.076;15.412;2022-08-14T12:48:58;4.35;;;4.13;;
17265;SDS011;8749;47.076;15.412;2022-08-14T12:51:31;4.10;;;3.90;;
17265;SDS011;8749;47.076;15.412;2022-08-14T12:53:59;4.47;;;4.20;;
17265;SDS011;8749;47.076;15.412;2022-08-14T12:56:38;4.32;;;4.13;;
17265;SDS011;8749;47.076;15.412;2022-08-14T12:59:05;4.47;;;4.28;;
17265;SDS011;8749;47.076;15.412;2022-08-14T13:01:33;4.53;;;4.13;;
17265;SDS011;8749;47.076;15.412;2022-08-14T13:04:02;4.82;;;4.43;;
17265;SDS011;8749;47.076;15.412;2022-08-14T13:06:32;4.18;;;3.97;;
17265;SDS011;8749;47.076;15.412;2022-08-14T13:09:01;5.40;;;5.10;;
17265;SDS011;8749;47.076;15.412;2022-08-14T13:11:32;5.60;;;5.20;;
17265;SDS011;8749;47.076;15.412;2022-08-14T13:14:04;4.60;;;4.30;;
17265;SDS011;8749;47.076;15.412;2022-08-14T13:16:31;4.55;;;4.25;;
17265;SDS011;8749;47.076;15.412;2022-08-14T13:18:58;4.03;;;3.83;;
17265;SDS011;8749;47.076;15.412;2022-08-14T13:21:26;3.72;;;3.60;;
17265;SDS011;8749;47.076;15.412;2022-08-14T13:23:55;3.90;;;3.70;;
17265;SDS011;8749;47.076;15.412;2022-08-14T13:26:23;3.75;;;3.65;;
17265;SDS011;8749;47.076;15.412;2022-08-14T13:28:51;4.03;;;3.83;;
17265;SDS011;8749;47.076;15.412;2022-08-14T13:31:19;4.03;;;3.83;;
17265;SDS011;8749;47.076;15.412;2022-08-14T13:33:49;4.20;;;3.90;;
17265;SDS011;8749;47.076;15.412;2022-08-14T13:36:16;3.95;;;3.75;;
17265;SDS011;8749;47.076;15.412;2022-08-14T13:38:43;3.80;;;3.60;;
17265;SDS011;8749;47.076;15.412;2022-08-14T13:41:15;3.85;;;3.55;;
17265;SDS011;8749;47.076;15.412;2022-08-14T13:43:47;3.72;;;3.63;;
17265;SDS011;8749;47.076;15.412;2022-08-14T13:46:15;3.95;;;3.75;;
17265;SDS011;8749;47.076;15.412;2022-08-14T13:48:42;4.15;;;3.95;;
17265;SDS011;8749;47.076;15.412;2022-08-14T13:51:09;4.20;;;4.00;;
17265;SDS011;8749;47.076;15.412;2022-08-14T13:53:41;3.78;;;3.67;;
17265;SDS011;8749;47.076;15.412;2022-08-14T13:56:10;3.85;;;3.70;;
17265;SDS011;8749;47.076;15.412;2022-08-14T13:58:41;4.15;;;3.70;;
17265;SDS011;8749;47.076;15.412;2022-08-14T14:01:09;3.92;;;3.72;;
17265;SDS011;8749;47.076;15.412;2022-08-14T14:03:39;3.65;;;3.53;;
17265;SDS011;8749;47.076;15.412;2022-08-14T14:06:10;3.60;;;3.40;;
17265;SDS011;8749;47.076;15.412;2022-08-14T14:08:41;3.55;;;3.38;;
17265;SDS011;8749;47.076;15.412;2022-08-14T14:11:12;3.80;;;3.60;;
17265;SDS011;8749;47.076;15.412;2022-08-14T14:13:41;4.00;;;3.80;;
17265;SDS011;8749;47.076;15.412;2022-08-14T14:16:09;3.80;;;3.60;;
17265;SDS011;8749;47.076;15.412;2022-08-14T14:18:36;4.22;;;3.67;;
17265;SDS011;8749;47.076;15.412;2022-08-14T14:21:03;5.40;;;5.00;;
17265;SDS011;8749;47.076;15.412;2022-08-14T14:23:31;4.70;;;4.30;;
17265;SDS011;8749;47.076;15.412;2022-08-14T14:25:59;4.20;;;3.90;;
17265;SDS011;8749;47.076;15.412;2022-08-14T14:28:28;3.90;;;3.70;;
17265;SDS011;8749;47.076;15.412;2022-08-14T14:30:58;4.30;;;4.10;;
17265;SDS011;8749;47.076;15.412;2022-08-14T14:33:27;5.63;;;5.13;;
17265;SDS011;8749;47.076;15.412;2022-08-14T14:35:59;6.20;;;5.70;;
17265;SDS011;8749;47.076;15.412;2022-08-14T14:38:27;4.82;;;4.43;;
17265;SDS011;8749;47.076;15.412;2022-08-14T14:40:58;4.05;;;3.85;;
17265;SDS011;8749;47.076;15.412;2022-08-14T14:43:26;4.53;;;4.20;;
17265;SDS011;8749;47.076;15.412;2022-08-14T14:45:54;5.78;;;5.38;;
17265;SDS011;8749;47.076;15.412;2022-08-14T14:48:23;5.50;;;4.97;;
17265;SDS011;8749;47.076;15.412;2022-08-14T14:50:55;5.50;;;5.10;;
17265;SDS011;8749;47.076;15.412;2022-08-14T14:53:25;4.47;;;4.28;;
17265;SDS011;8749;47.076;15.412;2022-08-14T14:55:58;4.40;;;4.20;;
17265;SDS011;8749;47.076;15.412;2022-08-14T14:58:26;4.30;;;3.95;;